createdAt,value
2016-08-17T00:00:39.398Z,94.17
2016-08-17T00:01:39.394Z,94.55
2016-08-17T00:02:38.670Z,94.55
2016-08-17T00:03:39.375Z,94.55
2016-08-17T00:04:38.652Z,94.55
2016-08-17T00:05:38.657Z,95.12
2016-08-17T00:06:38.629Z,95.03
2016-08-17T00:07:38.621Z,94.84
2016-08-17T00:08:38.611Z,95.12
2016-08-17T00:09:38.601Z,95.32
2016-08-17T00:10:38.592Z,94.93
2016-08-17T00:11:38.582Z,94.93
2016-08-17T00:12:39.278Z,95.22
2016-08-17T00:13:39.271Z,95.51
2016-08-17T00:14:38.548Z,95.32
2016-08-17T00:15:38.539Z,95.17
2016-08-17T00:16:38.531Z,95.17
2016-08-17T00:17:38.519Z,95.56
2016-08-17T00:18:39.234Z,96.03
2016-08-17T00:19:38.498Z,95.84
2016-08-17T00:20:38.501Z,95.65
2016-08-17T00:21:38.477Z,95.94
2016-08-17T00:22:39.174Z,95.84
2016-08-17T00:23:38.456Z,95.84
2016-08-17T00:24:38.450Z,95.56
2016-08-17T00:25:38.444Z,95.75
2016-08-17T00:26:38.441Z,95.65
2016-08-17T00:27:39.134Z,96.03
2016-08-17T00:28:39.123Z,96.61
2016-08-17T00:29:38.409Z,96.51
2016-08-17T00:30:39.111Z,96.61
2016-08-17T00:31:38.381Z,96.8
2016-08-17T00:32:38.375Z,96.8
2016-08-17T00:33:38.374Z,96.7
2016-08-17T00:34:38.364Z,96.22
2016-08-17T00:35:39.057Z,96.42
2016-08-17T00:36:38.332Z,96.51
2016-08-17T00:37:39.033Z,97.18
2016-08-17T00:38:38.306Z,97.28
2016-08-17T00:39:39.011Z,96.7
2016-08-17T00:40:39.010Z,96.8
2016-08-17T00:41:39.004Z,96.61
2016-08-17T00:42:38.980Z,96.8
2016-08-17T00:43:38.987Z,96.8
2016-08-17T00:44:38.955Z,96.51
2016-08-17T00:45:38.947Z,96.51
2016-08-17T00:46:38.221Z,96.42
2016-08-17T00:47:38.212Z,96.22
2016-08-17T00:48:38.906Z,96.8
2016-08-17T00:49:38.192Z,96.99
2016-08-17T00:50:38.891Z,97.37
2016-08-17T00:51:38.174Z,97.28
2016-08-17T00:52:38.155Z,98.04
2016-08-17T00:53:38.153Z,97.94
2016-08-17T00:54:38.846Z,98.23
2016-08-17T00:55:38.129Z,97.75
2016-08-17T00:56:38.116Z,98.04
2016-08-17T00:57:38.821Z,98.23
2016-08-17T00:58:38.095Z,98.33
2016-08-17T00:59:38.084Z,98.33
2016-08-17T01:00:38.779Z,97.75
2016-08-17T01:01:38.064Z,98.23
2016-08-17T01:02:38.054Z,97.94
2016-08-17T01:03:38.050Z,98.33
2016-08-17T01:04:38.029Z,99.09
2016-08-17T01:05:38.022Z,98.61
2016-08-17T01:06:38.017Z,99.28
2016-08-17T01:07:38.000Z,98.9
2016-08-17T01:08:37.990Z,98.61
2016-08-17T01:09:37.996Z,99.48
2016-08-17T01:10:37.968Z,99.09
2016-08-17T01:11:38.666Z,98.8
2016-08-17T01:12:38.657Z,99.19
2016-08-17T01:13:38.648Z,98.61
2016-08-17T01:14:37.947Z,99.19
2016-08-17T01:15:38.135Z,99.66
2016-08-17T01:16:38.613Z,98.9
2016-08-17T01:17:37.904Z,99.28
2016-08-17T01:18:37.897Z,98.33
2016-08-17T01:19:37.884Z,99.09
2016-08-17T01:20:37.873Z,98.66
2016-08-17T01:21:37.869Z,98.52
2016-08-17T01:22:38.553Z,98.38
2016-08-17T01:23:37.838Z,98.38
2016-08-17T01:24:38.549Z,98.09
2016-08-17T01:25:37.810Z,98.28
2016-08-17T01:26:38.533Z,97.8
2016-08-17T01:27:37.792Z,97.61
2016-08-17T01:28:37.779Z,98.47
2016-08-17T01:29:37.768Z,97.33
2016-08-17T01:30:37.758Z,97.52
2016-08-17T01:31:37.748Z,97.33
2016-08-17T01:32:37.744Z,97.8
2016-08-17T01:33:37.725Z,97.71
2016-08-17T01:34:38.434Z,97.33
2016-08-17T01:35:37.710Z,97.23
2016-08-17T01:36:37.695Z,97.52
2016-08-17T01:37:37.685Z,97.61
2016-08-17T01:38:37.678Z,97.52
2016-08-17T01:39:37.665Z,97.8
2016-08-17T01:40:37.653Z,97.04
2016-08-17T01:41:38.357Z,97.42
2016-08-17T01:42:37.632Z,96.94
2016-08-17T01:43:38.328Z,97.8
2016-08-17T01:44:37.626Z,96.75
2016-08-17T01:45:37.608Z,97.04
2016-08-17T01:46:38.299Z,96.84
2016-08-17T01:47:37.585Z,97.13
2016-08-17T01:48:37.572Z,97.8
2016-08-17T01:49:37.562Z,96.94
2016-08-17T01:50:37.547Z,97.33
2016-08-17T01:51:37.543Z,97.8
2016-08-17T01:52:38.250Z,97.52
2016-08-17T01:53:37.518Z,98.38
2016-08-17T01:54:37.504Z,97.61
2016-08-17T01:55:37.498Z,97.23
2016-08-17T01:56:37.487Z,97.71
2016-08-17T01:57:37.478Z,97.42
2016-08-17T01:58:37.465Z,97.71
2016-08-17T01:59:37.456Z,97.33
2016-08-17T02:00:37.447Z,96.94
2016-08-17T02:01:37.436Z,97.33
2016-08-17T02:02:37.425Z,97.23
2016-08-17T02:03:37.416Z,97.23
2016-08-17T02:04:37.406Z,97.13
2016-08-17T02:05:38.102Z,97.33
2016-08-17T02:06:38.092Z,97.8
2016-08-17T02:07:37.374Z,97.42
2016-08-17T02:08:37.371Z,97.71
2016-08-17T02:09:37.355Z,98.09
2016-08-17T02:10:38.049Z,98.28
2016-08-17T02:11:37.333Z,97.9
2016-08-17T02:12:37.322Z,97.71
2016-08-17T02:13:37.323Z,98.38
2016-08-17T02:14:38.006Z,98.28
2016-08-17T02:15:37.290Z,97.71
2016-08-17T02:16:37.281Z,97.28
2016-08-17T02:17:37.281Z,97.61
2016-08-17T02:18:37.963Z,97.71
2016-08-17T02:19:37.248Z,97.9
2016-08-17T02:20:37.239Z,97.9
2016-08-17T02:21:37.225Z,97.47
2016-08-17T02:22:37.219Z,97.37
2016-08-17T02:23:37.209Z,97.66
2016-08-17T02:24:37.903Z,98.23
2016-08-17T02:25:37.192Z,98.23
2016-08-17T02:26:37.174Z,98.23
2016-08-17T02:27:37.165Z,97.75
2016-08-17T02:28:37.155Z,98.04
2016-08-17T02:29:37.852Z,98.33
2016-08-17T02:30:37.841Z,97.75
2016-08-17T02:31:37.121Z,99.38
2016-08-17T02:32:37.821Z,98.33
2016-08-17T02:33:37.103Z,98.23
2016-08-17T02:34:37.090Z,98.33
2016-08-17T02:35:37.079Z,98.23
2016-08-17T02:36:37.071Z,98.23
2016-08-17T02:37:37.063Z,98.42
2016-08-17T02:38:37.755Z,98.42
2016-08-17T02:39:37.742Z,98.42
2016-08-17T02:40:37.028Z,98.42
2016-08-17T02:41:37.017Z,98.71
2016-08-17T02:42:37.008Z,98.61
2016-08-17T02:43:36.994Z,98.75
2016-08-17T02:44:37.694Z,98.8
2016-08-17T02:45:36.974Z,98.75
2016-08-17T02:46:36.964Z,98.8
2016-08-17T02:47:36.953Z,98.66
2016-08-17T02:48:36.944Z,98.57
2016-08-17T02:49:37.639Z,98.75
2016-08-17T02:50:36.922Z,98.75
2016-08-17T02:51:36.914Z,98.75
2016-08-17T02:52:36.899Z,98.94
2016-08-17T02:53:36.892Z,98.94
2016-08-17T02:54:36.883Z,99.04
2016-08-17T02:55:36.871Z,99.14
2016-08-17T02:56:36.859Z,99.33
2016-08-17T02:57:36.854Z,99.14
2016-08-17T02:58:36.838Z,99.14
2016-08-17T02:59:37.535Z,99.23
2016-08-17T03:00:36.815Z,99.62
2016-08-17T03:01:36.810Z,99.23
2016-08-17T03:02:37.504Z,99.9
2016-08-17T03:03:37.492Z,99.99
2016-08-17T03:04:36.773Z,99.99
2016-08-17T03:05:37.471Z,99.99
2016-08-17T03:06:36.757Z,99.99
2016-08-17T03:07:36.742Z,99.99
2016-08-17T03:08:36.739Z,99.99
2016-08-17T03:09:36.721Z,99.99
2016-08-17T03:10:36.710Z,99.99
2016-08-17T03:11:37.411Z,99.99
2016-08-17T03:12:37.393Z,99.99
2016-08-17T03:13:36.676Z,99.99
2016-08-17T03:14:36.666Z,99.99
2016-08-17T03:15:37.362Z,99.99
2016-08-17T03:16:37.366Z,99.99
2016-08-17T03:17:37.342Z,99.99
2016-08-17T03:18:36.631Z,99.99
2016-08-17T03:19:36.612Z,99.99
2016-08-17T03:20:36.599Z,99.99
2016-08-17T03:21:37.296Z,99.99
2016-08-17T03:22:36.581Z,99.99
2016-08-17T03:23:36.566Z,99.99
2016-08-17T03:24:36.555Z,99.99
2016-08-17T03:25:37.255Z,99.99
2016-08-17T03:26:36.535Z,99.99
2016-08-17T03:27:36.525Z,99.99
2016-08-17T03:28:36.515Z,99.99
2016-08-17T03:29:37.217Z,99.99
2016-08-17T03:30:36.490Z,99.99
2016-08-17T03:31:37.187Z,99.99
2016-08-17T03:32:36.472Z,99.99
2016-08-17T03:33:36.458Z,99.99
2016-08-17T03:34:36.447Z,99.99
2016-08-17T03:35:37.146Z,99.99
2016-08-17T03:36:37.133Z,99.99
2016-08-17T03:37:37.121Z,99.99
2016-08-17T03:38:36.405Z,99.99
2016-08-17T03:39:37.098Z,99.99
2016-08-17T03:40:36.384Z,99.99
2016-08-17T03:41:37.076Z,99.99
2016-08-17T03:42:36.359Z,99.99
2016-08-17T03:43:36.348Z,99.99
2016-08-17T03:44:37.040Z,99.99
2016-08-17T03:45:37.034Z,99.99
2016-08-17T03:46:36.327Z,99.99
2016-08-17T03:47:36.301Z,99.99
2016-08-17T03:48:37.002Z,99.99
2016-08-17T03:49:36.279Z,99.99
2016-08-17T03:50:36.268Z,99.99
2016-08-17T03:51:36.255Z,99.99
2016-08-17T03:52:36.955Z,99.99
2016-08-17T03:53:36.234Z,99.99
2016-08-17T03:54:36.934Z,99.99
2016-08-17T03:55:36.213Z,99.99
2016-08-17T03:56:36.202Z,99.99
2016-08-17T03:57:36.898Z,99.99
2016-08-17T03:58:36.909Z,99.99
2016-08-17T03:59:36.875Z,99.99
2016-08-17T04:00:36.864Z,99.99
2016-08-17T04:01:36.148Z,99.99
2016-08-17T04:02:36.843Z,99.99
2016-08-17T04:03:36.830Z,99.99
2016-08-17T04:04:36.112Z,99.99
2016-08-17T04:05:36.107Z,99.99
2016-08-17T04:06:36.090Z,99.99
2016-08-17T04:07:36.078Z,99.99
2016-08-17T04:08:36.068Z,99.99
2016-08-17T04:09:36.059Z,99.99
2016-08-17T04:10:36.045Z,99.99
2016-08-17T04:11:36.034Z,99.99
2016-08-17T04:12:36.932Z,99.99
2016-08-17T04:13:36.718Z,99.99
2016-08-17T04:14:36.003Z,99.99
2016-08-17T04:15:35.990Z,99.99
2016-08-17T04:16:35.976Z,99.99
2016-08-17T04:17:35.970Z,99.99
2016-08-17T04:18:35.968Z,99.99
2016-08-17T04:19:35.942Z,99.99
2016-08-17T04:20:35.931Z,99.99
2016-08-17T04:21:35.922Z,99.99
2016-08-17T04:22:35.905Z,99.99
2016-08-17T04:23:35.899Z,99.99
2016-08-17T04:24:36.593Z,99.99
2016-08-17T04:25:35.873Z,99.99
2016-08-17T04:26:35.865Z,99.99
2016-08-17T04:27:36.554Z,99.99
2016-08-17T04:28:35.844Z,99.99
2016-08-17T04:29:35.827Z,99.99
2016-08-17T04:30:35.817Z,99.99
2016-08-17T04:31:35.806Z,99.99
2016-08-17T04:32:35.792Z,99.99
2016-08-17T04:33:35.782Z,99.99
2016-08-17T04:34:36.481Z,99.99
2016-08-17T04:35:36.472Z,99.99
2016-08-17T04:36:36.452Z,99.99
2016-08-17T04:37:35.740Z,99.99
2016-08-17T04:38:35.722Z,99.99
2016-08-17T04:39:35.718Z,99.99
2016-08-17T04:40:35.702Z,99.99
2016-08-17T04:41:35.691Z,99.99
2016-08-17T04:42:35.678Z,99.99
2016-08-17T04:43:35.666Z,99.99
2016-08-17T04:44:35.660Z,99.99
2016-08-17T04:45:35.646Z,99.99
2016-08-17T04:46:35.636Z,99.99
2016-08-17T04:47:35.621Z,99.99
2016-08-17T04:48:35.606Z,99.99
2016-08-17T04:49:36.304Z,99.99
2016-08-17T04:50:35.593Z,99.99
2016-08-17T04:51:35.649Z,99.99
2016-08-17T04:52:35.573Z,99.99
2016-08-17T04:53:35.551Z,99.99
2016-08-17T04:54:36.258Z,99.99
2016-08-17T04:55:36.258Z,99.99
2016-08-17T04:56:35.519Z,99.99
2016-08-17T04:57:36.212Z,99.99
2016-08-17T04:58:36.200Z,99.99
2016-08-17T04:59:36.191Z,99.99
2016-08-17T05:00:35.521Z,99.99
2016-08-17T05:01:36.167Z,99.99
2016-08-17T05:02:35.452Z,99.99
2016-08-17T05:03:35.440Z,99.99
2016-08-17T05:04:36.163Z,99.99
2016-08-17T05:05:36.124Z,99.99
2016-08-17T05:06:35.404Z,99.99
2016-08-17T05:07:36.110Z,99.99
2016-08-17T05:08:35.382Z,99.99
2016-08-17T05:09:35.370Z,99.99
2016-08-17T05:10:35.358Z,99.99
2016-08-17T05:11:35.347Z,99.99
2016-08-17T05:12:36.043Z,99.99
2016-08-17T05:13:35.326Z,99.99
2016-08-17T05:14:36.023Z,99.99
2016-08-17T05:15:35.302Z,99.99
2016-08-17T05:16:35.290Z,99.99
2016-08-17T05:17:35.987Z,99.99
2016-08-17T05:18:35.268Z,99.99
2016-08-17T05:19:35.963Z,99.99
2016-08-17T05:20:35.246Z,99.99
2016-08-17T05:21:35.938Z,99.99
2016-08-17T05:22:35.223Z,99.99
2016-08-17T05:23:35.919Z,99.99
2016-08-17T05:24:35.200Z,99.99
2016-08-17T05:25:35.190Z,99.99
2016-08-17T05:26:35.180Z,99.99
2016-08-17T05:27:35.170Z,99.99
2016-08-17T05:28:35.155Z,99.99
2016-08-17T05:29:35.155Z,99.99
2016-08-17T05:30:35.838Z,99.99
2016-08-17T05:31:35.123Z,99.99
2016-08-17T05:32:35.816Z,99.99
2016-08-17T05:33:35.098Z,99.99
2016-08-17T05:34:35.087Z,99.99
2016-08-17T05:35:35.078Z,99.99
2016-08-17T05:36:35.071Z,99.99
2016-08-17T05:37:35.054Z,99.99
2016-08-17T05:38:35.041Z,99.99
2016-08-17T05:39:35.033Z,99.99
2016-08-17T05:40:35.731Z,99.99
2016-08-17T05:41:35.717Z,99.99
2016-08-17T05:42:35.710Z,99.99
2016-08-17T05:43:34.986Z,99.99
2016-08-17T05:44:35.686Z,99.99
2016-08-17T05:45:34.967Z,99.99
2016-08-17T05:46:35.666Z,99.99
2016-08-17T05:47:34.941Z,99.99
2016-08-17T05:48:35.638Z,99.99
2016-08-17T05:49:34.922Z,99.99
2016-08-17T05:50:34.912Z,99.99
2016-08-17T05:51:34.901Z,99.99
2016-08-17T05:52:35.598Z,99.99
2016-08-17T05:53:34.892Z,99.99
2016-08-17T05:54:35.573Z,99.99
2016-08-17T05:55:34.856Z,99.99
2016-08-17T05:56:34.844Z,99.99
2016-08-17T05:57:35.543Z,99.99
2016-08-17T05:58:34.824Z,99.99
2016-08-17T05:59:35.520Z,99.99
2016-08-17T06:00:35.567Z,99.99
2016-08-17T06:01:34.792Z,99.99
2016-08-17T06:02:34.779Z,99.99
2016-08-17T06:03:35.476Z,99.99
2016-08-17T06:04:34.761Z,99.99
2016-08-17T06:05:34.751Z,99.99
2016-08-17T06:06:34.741Z,99.99
2016-08-17T06:07:34.731Z,99.99
2016-08-17T06:08:34.718Z,99.99
2016-08-17T06:09:35.418Z,99.99
2016-08-17T06:10:35.402Z,99.99
2016-08-17T06:11:34.683Z,99.99
2016-08-17T06:12:35.382Z,99.99
2016-08-17T06:13:35.374Z,99.99
2016-08-17T06:14:35.366Z,99.99
2016-08-17T06:15:35.351Z,99.99
2016-08-17T06:16:34.634Z,99.99
2016-08-17T06:17:34.624Z,99.99
2016-08-17T06:18:35.321Z,99.99
2016-08-17T06:19:35.309Z,99.99
2016-08-17T06:20:34.591Z,99.99
2016-08-17T06:21:34.594Z,99.99
2016-08-17T06:22:34.573Z,99.99
2016-08-17T06:23:34.561Z,99.99
2016-08-17T06:24:34.557Z,99.99
2016-08-17T06:25:34.539Z,99.99
2016-08-17T06:26:34.529Z,99.99
2016-08-17T06:27:34.521Z,99.99
2016-08-17T06:28:34.509Z,99.99
2016-08-17T06:29:35.207Z,99.99
2016-08-17T06:30:35.194Z,99.99
2016-08-17T06:31:35.186Z,99.99
2016-08-17T06:32:34.467Z,99.99
2016-08-17T06:33:34.461Z,99.99
2016-08-17T06:34:35.157Z,99.99
2016-08-17T06:35:34.437Z,99.99
2016-08-17T06:36:34.428Z,99.99
2016-08-17T06:37:35.121Z,99.99
2016-08-17T06:38:34.405Z,99.99
2016-08-17T06:39:34.396Z,99.99
2016-08-17T06:40:34.387Z,99.99
2016-08-17T06:41:35.086Z,99.99
2016-08-17T06:42:34.369Z,99.99
2016-08-17T06:43:35.066Z,99.99
2016-08-17T06:44:34.347Z,99.99
2016-08-17T06:45:34.344Z,99.99
2016-08-17T06:46:34.326Z,99.99
2016-08-17T06:47:34.318Z,99.99
2016-08-17T06:48:34.308Z,99.99
2016-08-17T06:49:34.301Z,99.99
2016-08-17T06:50:34.994Z,99.99
2016-08-17T06:51:34.279Z,99.91
2016-08-17T06:52:34.282Z,99.72
2016-08-17T06:53:34.274Z,99.52
2016-08-17T06:54:34.968Z,99.62
2016-08-17T06:55:34.238Z,99.99
2016-08-17T06:56:34.229Z,99.15
2016-08-17T06:57:34.219Z,99.05
2016-08-17T06:58:34.917Z,98.86
2016-08-17T06:59:34.906Z,97.52
2016-08-17T07:00:34.188Z,97.33
2016-08-17T07:01:34.179Z,97.23
2016-08-17T07:02:34.168Z,97.18
2016-08-17T07:03:34.866Z,97.75
2016-08-17T07:04:34.371Z,96.61
2016-08-17T07:05:34.140Z,95.65
2016-08-17T07:06:34.837Z,95.46
2016-08-17T07:07:34.832Z,94.31
2016-08-17T07:08:34.819Z,94.69
2016-08-17T07:09:34.103Z,93.93
2016-08-17T07:10:34.296Z,94.02
2016-08-17T07:11:34.790Z,94.79
2016-08-17T07:12:34.075Z,93.98
2016-08-17T07:13:34.068Z,93.49
2016-08-17T07:14:34.765Z,94.07
2016-08-17T07:15:34.046Z,93.98
2016-08-17T07:16:34.033Z,93.11
2016-08-17T07:17:34.735Z,92.54
2016-08-17T07:18:34.017Z,93.02
2016-08-17T07:19:34.207Z,92.92
2016-08-17T07:20:33.998Z,93.11
2016-08-17T07:21:33.990Z,92.44
2016-08-17T07:22:33.985Z,91.96
2016-08-17T07:23:34.679Z,91.67
2016-08-17T07:24:33.959Z,91.96
2016-08-17T07:25:33.950Z,91.91
2016-08-17T07:26:34.647Z,90.53
2016-08-17T07:27:33.931Z,89.71
2016-08-17T07:28:33.924Z,89.42
2016-08-17T07:29:33.915Z,89.42
2016-08-17T07:30:34.609Z,89.42
2016-08-17T07:31:34.603Z,89.04
2016-08-17T07:32:33.894Z,90.19
2016-08-17T07:33:33.885Z,90.09
2016-08-17T07:34:33.872Z,90.19
2016-08-17T07:35:34.571Z,90.95
2016-08-17T07:36:33.851Z,90.95
2016-08-17T07:37:33.850Z,90.09
2016-08-17T07:38:34.541Z,88.56
2016-08-17T07:39:33.828Z,89.37
2016-08-17T07:40:33.814Z,89.27
2016-08-17T07:41:33.805Z,88.89
2016-08-17T07:42:33.803Z,89.18
2016-08-17T07:43:34.498Z,89.08
2016-08-17T07:44:33.778Z,87.93
2016-08-17T07:45:33.772Z,87.84
2016-08-17T07:46:33.764Z,87.84
2016-08-17T07:47:33.754Z,87.84
2016-08-17T07:48:33.748Z,88.22
2016-08-17T07:49:34.448Z,88.51
2016-08-17T07:50:33.729Z,87.68
2016-08-17T07:51:34.425Z,88.26
2016-08-17T07:52:34.420Z,87.01
2016-08-17T07:53:34.406Z,86.82
2016-08-17T07:54:34.396Z,86.44
2016-08-17T07:55:34.392Z,87.21
2016-08-17T07:56:34.381Z,86.15
2016-08-17T07:57:33.680Z,85.48
2016-08-17T07:58:33.659Z,85.58
2016-08-17T07:59:33.652Z,85.58
2016-08-17T08:00:34.354Z,86.54
2016-08-17T08:01:34.337Z,86.54
2016-08-17T08:02:33.624Z,86.72
2016-08-17T08:03:34.326Z,86.63
2016-08-17T08:04:33.606Z,85.38
2016-08-17T08:05:33.599Z,85.28
2016-08-17T08:06:34.298Z,85.1
2016-08-17T08:07:33.579Z,83.94
2016-08-17T08:08:33.571Z,83.98
2016-08-17T08:09:33.562Z,83.6
2016-08-17T08:10:33.553Z,83.7
2016-08-17T08:11:33.545Z,83.7
2016-08-17T08:12:33.537Z,85.24
2016-08-17T08:13:33.529Z,84.66
2016-08-17T08:14:33.519Z,83.12
2016-08-17T08:15:33.511Z,82.84
2016-08-17T08:16:33.505Z,83.89
2016-08-17T08:17:33.497Z,82.84
2016-08-17T08:18:34.193Z,82.45
2016-08-17T08:19:34.191Z,79.71
2016-08-17T08:20:34.183Z,76.14
2016-08-17T08:21:33.466Z,68.26
2016-08-17T08:22:33.461Z,65.37
2016-08-17T08:23:34.161Z,62.63
2016-08-17T08:24:33.450Z,60.18
2016-08-17T08:25:33.444Z,57.92
2016-08-17T08:26:34.146Z,56.3
2016-08-17T08:27:33.434Z,54.3
2016-08-17T08:28:34.140Z,55.13
2016-08-17T08:29:34.134Z,52.15
2016-08-17T08:30:33.422Z,49.66
2016-08-17T08:31:33.431Z,50.92
2016-08-17T08:32:33.413Z,49.49
2016-08-17T08:33:34.117Z,50.79
2016-08-17T08:34:34.110Z,51.93
2016-08-17T08:35:34.109Z,52.12
2016-08-17T08:36:33.400Z,53.65
2016-08-17T08:37:33.392Z,54.98
2016-08-17T08:38:34.105Z,54.52
2016-08-17T08:39:33.390Z,52.58
2016-08-17T08:40:34.093Z,54.13
2016-08-17T08:41:33.386Z,52.97
2016-08-17T08:42:34.085Z,52.95
2016-08-17T08:43:33.373Z,53.89
2016-08-17T08:44:33.375Z,54.95
2016-08-17T08:45:33.364Z,52.82
2016-08-17T08:46:33.364Z,52.17
2016-08-17T08:47:34.068Z,51.78
2016-08-17T08:48:33.368Z,50.82
2016-08-17T08:49:33.351Z,48.54
2016-08-17T08:50:33.347Z,49.8
2016-08-17T08:51:33.345Z,49.99
2016-08-17T08:52:33.344Z,49.99
2016-08-17T08:53:34.040Z,51.62
2016-08-17T08:54:33.345Z,51.32
2016-08-17T08:55:33.329Z,51.13
2016-08-17T08:56:33.333Z,49.65
2016-08-17T08:57:34.027Z,52.17
2016-08-17T08:58:34.023Z,51.1
2016-08-17T08:59:34.022Z,51.68
2016-08-17T09:00:33.304Z,53.99
2016-08-17T09:01:33.295Z,54.35
2016-08-17T09:02:34.018Z,55.09
2016-08-17T09:03:33.293Z,54.99
2016-08-17T09:04:33.994Z,55.07
2016-08-17T09:05:33.993Z,57.38
2016-08-17T09:06:33.985Z,56.77
2016-08-17T09:07:33.979Z,56.77
2016-08-17T09:08:33.264Z,56.16
2016-08-17T09:09:33.260Z,55.88
2016-08-17T09:10:33.965Z,57.42
2016-08-17T09:11:33.253Z,57.39
2016-08-17T09:12:33.246Z,59.61
2016-08-17T09:13:33.946Z,58.94
2016-08-17T09:14:33.236Z,54.69
2016-08-17T09:15:33.229Z,55.94
2016-08-17T09:16:33.225Z,56.52
2016-08-17T09:17:33.217Z,53.95
2016-08-17T09:18:33.210Z,56.56
2016-08-17T09:19:33.220Z,57.04
2016-08-17T09:20:33.910Z,57.14
2016-08-17T09:21:33.195Z,56.65
2016-08-17T09:22:33.190Z,56.91
2016-08-17T09:23:33.894Z,56.62
2016-08-17T09:24:33.182Z,56.69
2016-08-17T09:25:33.177Z,58.33
2016-08-17T09:26:33.172Z,58.14
2016-08-17T09:27:33.159Z,60.26
2016-08-17T09:28:33.156Z,58.14
2016-08-17T09:29:33.869Z,59.07
2016-08-17T09:30:33.146Z,57.92
2016-08-17T09:31:33.140Z,59.75
2016-08-17T09:32:33.135Z,57.14
2016-08-17T09:33:33.129Z,56.09
2016-08-17T09:34:33.829Z,58.01
2016-08-17T09:35:33.825Z,56.95
2016-08-17T09:36:33.110Z,56.66
2016-08-17T09:37:33.813Z,56.95
2016-08-17T09:38:33.807Z,59.17
2016-08-17T09:39:33.092Z,60.32
2016-08-17T09:40:33.799Z,60.52
2016-08-17T09:41:33.999Z,60.03
2016-08-17T09:42:33.081Z,59.07
2016-08-17T09:43:33.069Z,59.94
2016-08-17T09:44:33.773Z,60.8
2016-08-17T09:45:33.763Z,60.32
2016-08-17T09:46:33.051Z,59.17
2016-08-17T09:47:33.751Z,60.03
2016-08-17T09:48:33.048Z,60.03
2016-08-17T09:49:33.034Z,60.52
2016-08-17T09:50:33.039Z,59.36
2016-08-17T09:51:33.020Z,60.32
2016-08-17T09:52:33.725Z,59.55
2016-08-17T09:53:33.719Z,58.59
2016-08-17T09:54:33.715Z,59.36
2016-08-17T09:55:33.704Z,58.49
2016-08-17T09:56:32.990Z,60.42
2016-08-17T09:57:32.986Z,60.52
2016-08-17T09:58:32.978Z,59.55
2016-08-17T09:59:32.972Z,59.75
2016-08-17T10:00:32.965Z,58.97
2016-08-17T10:01:32.959Z,57.53
2016-08-17T10:02:32.954Z,58.69
2016-08-17T10:03:32.944Z,58.11
2016-08-17T10:04:32.945Z,59.45
2016-08-17T10:05:33.654Z,58.4
2016-08-17T10:06:33.851Z,59.17
2016-08-17T10:07:33.631Z,57.14
2016-08-17T10:08:33.625Z,58.91
2016-08-17T10:09:33.628Z,57.46
2016-08-17T10:10:33.615Z,56.37
2016-08-17T10:11:33.621Z,57.65
2016-08-17T10:12:33.614Z,57.62
2016-08-17T10:13:33.613Z,56.88
2016-08-17T10:14:32.882Z,56.57
2016-08-17T10:15:33.603Z,56.09
2016-08-17T10:16:33.587Z,55.63
2016-08-17T10:17:33.578Z,53.99
2016-08-17T10:18:33.571Z,51.97
2016-08-17T10:19:33.569Z,53.05
2016-08-17T10:20:33.558Z,54.11
2016-08-17T10:21:33.565Z,53.92
2016-08-17T10:22:33.771Z,51.61
2016-08-17T10:23:32.841Z,52.47
2016-08-17T10:24:33.538Z,50.86
2016-08-17T10:25:33.526Z,51.05
2016-08-17T10:26:33.542Z,48.06
2016-08-17T10:27:32.810Z,47.12
2016-08-17T10:28:33.563Z,50.01
2016-08-17T10:29:33.518Z,52.23
2016-08-17T10:30:33.509Z,50.96
2016-08-17T10:31:33.497Z,51.63
2016-08-17T10:32:32.793Z,50.86
2016-08-17T10:33:32.773Z,50.86
2016-08-17T10:34:33.482Z,50.67
2016-08-17T10:35:33.482Z,48.28
2016-08-17T10:36:32.762Z,49.41
2016-08-17T10:37:33.460Z,50.59
2016-08-17T10:38:32.950Z,49.24
2016-08-17T10:39:33.454Z,49.17
2016-08-17T10:40:32.742Z,49.46
2016-08-17T10:41:32.749Z,49.39
2016-08-17T10:42:32.729Z,46.53
2016-08-17T10:43:32.723Z,44.53
2016-08-17T10:44:33.132Z,45.25
2016-08-17T10:45:33.430Z,41.1
2016-08-17T10:46:33.430Z,39.86
2016-08-17T10:47:33.443Z,37.63
2016-08-17T10:48:33.416Z,38.6
2016-08-17T10:49:33.423Z,37.26
2016-08-17T10:50:32.720Z,35.53
2016-08-17T10:51:32.723Z,33.78
2016-08-17T10:52:33.508Z,36.11
2016-08-17T10:53:33.427Z,35.84
2016-08-17T10:54:32.715Z,37.59
2016-08-17T10:55:32.714Z,36.83
2016-08-17T10:56:32.720Z,37.52
2016-08-17T10:57:33.436Z,35.7
2016-08-17T10:58:32.716Z,36.96
2016-08-17T10:59:33.429Z,32.6
2016-08-17T11:00:32.724Z,31.71
2016-08-17T11:01:32.726Z,31.63
2016-08-17T11:02:32.717Z,31.82
2016-08-17T11:03:32.729Z,34.47
2016-08-17T11:04:32.723Z,33.11
2016-08-17T11:05:33.445Z,31.16
2016-08-17T11:06:32.728Z,30.38
2016-08-17T11:07:33.653Z,32.15
2016-08-17T11:08:32.736Z,30
2016-08-17T11:09:33.452Z,30.21
2016-08-17T11:10:33.467Z,31.38
2016-08-17T11:11:32.744Z,30.02
2016-08-17T11:12:32.746Z,27.5
2016-08-17T11:13:32.767Z,28.55
2016-08-17T11:14:32.755Z,27.68
2016-08-17T11:15:32.759Z,28.93
2016-08-17T11:16:33.473Z,31.35
2016-08-17T11:17:33.475Z,31.17
2016-08-17T11:18:33.480Z,30.88
2016-08-17T11:19:32.778Z,30.21
2016-08-17T11:20:32.779Z,31.01
2016-08-17T11:21:32.785Z,28.18
2016-08-17T11:22:32.790Z,30.42
2016-08-17T11:23:32.794Z,29.07
2016-08-17T11:24:33.507Z,29.85
2016-08-17T11:25:32.805Z,30.15
2016-08-17T11:26:33.521Z,30.06
2016-08-17T11:27:33.524Z,29.47
2016-08-17T11:28:33.528Z,28.3
2016-08-17T11:29:32.824Z,31.23
2016-08-17T11:30:33.542Z,26.56
2016-08-17T11:31:32.839Z,25.47
2016-08-17T11:32:33.547Z,26.42
2016-08-17T11:33:32.845Z,31.3
2016-08-17T11:34:33.562Z,26.53
2016-08-17T11:35:33.567Z,27.69
2016-08-17T11:36:33.580Z,28.57
2016-08-17T11:37:32.869Z,28
2016-08-17T11:38:32.879Z,28.68
2016-08-17T11:39:32.885Z,27.61
2016-08-17T11:40:32.885Z,29.08
2016-08-17T11:41:32.894Z,28.99
2016-08-17T11:42:32.900Z,29.3
2016-08-17T11:43:32.908Z,27.55
2016-08-17T11:44:33.616Z,28.25
2016-08-17T11:45:32.922Z,27.08
2016-08-17T11:46:32.925Z,29.03
2016-08-17T11:47:32.930Z,29.24
2016-08-17T11:48:33.662Z,28.67
2016-08-17T11:49:32.945Z,25.74
2016-08-17T11:50:32.949Z,23
2016-08-17T11:51:32.952Z,23.37
2016-08-17T11:52:32.958Z,25.4
2016-08-17T11:53:32.970Z,27.16
2016-08-17T11:54:32.973Z,25.71
2016-08-17T11:55:32.984Z,28.06
2016-08-17T11:56:32.985Z,24.75
2016-08-17T11:57:32.992Z,28.97
2016-08-17T11:58:33.011Z,25.17
2016-08-17T11:59:33.004Z,24.48
2016-08-17T12:00:33.016Z,23.7
2016-08-17T12:01:33.727Z,24.79
2016-08-17T12:02:33.027Z,24.02
2016-08-17T12:03:33.738Z,24.6
2016-08-17T12:04:33.743Z,22.74
2016-08-17T12:05:33.749Z,20.48
2016-08-17T12:06:33.755Z,18.91
2016-08-17T12:07:33.055Z,20.86
2016-08-17T12:08:33.766Z,23.31
2016-08-17T12:09:33.777Z,21.85
2016-08-17T12:10:33.785Z,23.32
2016-08-17T12:11:33.081Z,24.02
2016-08-17T12:12:33.086Z,23.72
2016-08-17T12:13:33.095Z,24.02
2016-08-17T12:14:33.102Z,22.27
2016-08-17T12:15:33.107Z,22.96
2016-08-17T12:16:33.825Z,23.07
2016-08-17T12:17:33.122Z,22.38
2016-08-17T12:18:33.127Z,20.91
2016-08-17T12:19:33.843Z,22.67
2016-08-17T12:20:33.851Z,22.19
2016-08-17T12:21:33.862Z,20.91
2016-08-17T12:22:33.155Z,22.19
2016-08-17T12:23:33.165Z,24.26
2016-08-17T12:24:33.170Z,21.41
2016-08-17T12:25:33.180Z,22.11
2016-08-17T12:26:33.894Z,20.24
2016-08-17T12:27:33.915Z,20.04
2016-08-17T12:28:33.196Z,18.87
2016-08-17T12:29:33.206Z,20.04
2016-08-17T12:30:33.207Z,20.53
2016-08-17T12:31:33.218Z,20.92
2016-08-17T12:32:33.223Z,21.03
2016-08-17T12:33:33.229Z,21.73
2016-08-17T12:34:33.237Z,19.76
2016-08-17T12:35:33.953Z,21.14
2016-08-17T12:36:33.250Z,20.64
2016-08-17T12:37:33.964Z,20.75
2016-08-17T12:38:33.967Z,22.31
2016-08-17T12:39:33.272Z,19.17
2016-08-17T12:40:33.279Z,21.52
2016-08-17T12:41:33.287Z,21.92
2016-08-17T12:42:33.292Z,20.26
2016-08-17T12:43:34.009Z,20.27
2016-08-17T12:44:34.015Z,21.04
2016-08-17T12:45:34.023Z,21.23
2016-08-17T12:46:34.029Z,21.33
2016-08-17T12:47:34.037Z,20.64
2016-08-17T12:48:33.336Z,20.26
2016-08-17T12:49:33.342Z,19.96
2016-08-17T12:50:33.351Z,21.03
2016-08-17T12:51:34.064Z,23.88
2016-08-17T12:52:34.068Z,18.58
2016-08-17T12:53:33.370Z,20.33
2016-08-17T12:54:33.378Z,22.39